sensor_id;sensor_type;location;lat;lon;timestamp;P1;durP1;ratioP1;P2;durP2;ratioP2
21430;SDS011;10876;49.038;10.608;2023-07-20T00:00:04;6.20;;;3.10;;
21430;SDS011;10876;49.038;10.608;2023-07-20T00:02:32;5.13;;;3.22;;
21430;SDS011;10876;49.038;10.608;2023-07-20T00:04:59;5.20;;;2.90;;
21430;SDS011;10876;49.038;10.608;2023-07-20T00:07:25;4.75;;;2.65;;
21430;SDS011;10876;49.038;10.608;2023-07-20T00:09:52;5.00;;;2.95;;
21430;SDS011;10876;49.038;10.608;2023-07-20T00:12:20;4.43;;;3.10;;
21430;SDS011;10876;49.038;10.608;2023-07-20T00:14:47;4.43;;;2.90;;
21430;SDS011;10876;49.038;10.608;2023-07-20T00:17:13;5.28;;;2.92;;
21430;SDS011;10876;49.038;10.608;2023-07-20T00:19:40;4.28;;;2.58;;
21430;SDS011;10876;49.038;10.608;2023-07-20T00:22:07;3.88;;;2.95;;
21430;SDS011;10876;49.038;10.608;2023-07-20T00:24:34;5.05;;;3.08;;
21430;SDS011;10876;49.038;10.608;2023-07-20T00:27:00;4.95;;;2.80;;
21430;SDS011;10876;49.038;10.608;2023-07-20T00:29:29;7.68;;;3.50;;
21430;SDS011;10876;49.038;10.608;2023-07-20T00:31:55;4.65;;;2.70;;
21430;SDS011;10876;49.038;10.608;2023-07-20T00:34:23;5.43;;;2.78;;
21430;SDS011;10876;49.038;10.608;2023-07-20T00:36:50;4.90;;;2.90;;
21430;SDS011;10876;49.038;10.608;2023-07-20T00:39:16;3.90;;;3.00;;
21430;SDS011;10876;49.038;10.608;2023-07-20T00:41:43;5.07;;;2.90;;
21430;SDS011;10876;49.038;10.608;2023-07-20T00:44:10;4.03;;;2.60;;
21430;SDS011;10876;49.038;10.608;2023-07-20T00:46:38;3.78;;;3.10;;
21430;SDS011;10876;49.038;10.608;2023-07-20T00:49:06;4.10;;;2.78;;
21430;SDS011;10876;49.038;10.608;2023-07-20T00:51:33;9.02;;;3.85;;
21430;SDS011;10876;49.038;10.608;2023-07-20T00:54:00;4.75;;;2.95;;
21430;SDS011;10876;49.038;10.608;2023-07-20T00:56:27;4.30;;;3.28;;
21430;SDS011;10876;49.038;10.608;2023-07-20T00:58:54;4.38;;;3.08;;
21430;SDS011;10876;49.038;10.608;2023-07-20T01:01:21;3.70;;;2.70;;
21430;SDS011;10876;49.038;10.608;2023-07-20T01:03:49;4.95;;;2.83;;
21430;SDS011;10876;49.038;10.608;2023-07-20T01:06:19;2.65;;;2.00;;
21430;SDS011;10876;49.038;10.608;2023-07-20T01:08:57;3.53;;;1.90;;
21430;SDS011;10876;49.038;10.608;2023-07-20T01:11:31;4.97;;;2.13;;
21430;SDS011;10876;49.038;10.608;2023-07-20T01:14:03;6.35;;;1.95;;
21430;SDS011;10876;49.038;10.608;2023-07-20T01:16:31;3.45;;;1.52;;
21430;SDS011;10876;49.038;10.608;2023-07-20T01:19:00;3.42;;;1.90;;
21430;SDS011;10876;49.038;10.608;2023-07-20T01:21:28;3.05;;;1.90;;
21430;SDS011;10876;49.038;10.608;2023-07-20T01:32:58;3.30;;;1.70;;
21430;SDS011;10876;49.038;10.608;2023-07-20T01:35:27;6.30;;;1.92;;
21430;SDS011;10876;49.038;10.608;2023-07-20T01:37:56;4.18;;;1.92;;
21430;SDS011;10876;49.038;10.608;2023-07-20T01:40:24;5.97;;;2.10;;
21430;SDS011;10876;49.038;10.608;2023-07-20T01:42:51;2.92;;;2.10;;
21430;SDS011;10876;49.038;10.608;2023-07-20T01:45:18;3.58;;;1.98;;
21430;SDS011;10876;49.038;10.608;2023-07-20T01:47:45;7.30;;;2.17;;
21430;SDS011;10876;49.038;10.608;2023-07-20T01:50:13;3.72;;;2.20;;
21430;SDS011;10876;49.038;10.608;2023-07-20T01:52:40;3.15;;;1.85;;
21430;SDS011;10876;49.038;10.608;2023-07-20T01:55:07;3.03;;;1.77;;
21430;SDS011;10876;49.038;10.608;2023-07-20T01:57:34;4.50;;;2.25;;
21430;SDS011;10876;49.038;10.608;2023-07-20T02:00:01;4.63;;;2.20;;
21430;SDS011;10876;49.038;10.608;2023-07-20T02:02:28;2.83;;;2.15;;
21430;SDS011;10876;49.038;10.608;2023-07-20T02:04:53;2.58;;;1.70;;
21430;SDS011;10876;49.038;10.608;2023-07-20T02:07:21;2.33;;;1.80;;
21430;SDS011;10876;49.038;10.608;2023-07-20T02:09:48;4.55;;;2.15;;
21430;SDS011;10876;49.038;10.608;2023-07-20T02:12:15;2.65;;;1.98;;
21430;SDS011;10876;49.038;10.608;2023-07-20T02:14:41;4.72;;;2.47;;
21430;SDS011;10876;49.038;10.608;2023-07-20T02:17:08;4.22;;;1.85;;
21430;SDS011;10876;49.038;10.608;2023-07-20T02:19:36;2.72;;;1.85;;
21430;SDS011;10876;49.038;10.608;2023-07-20T02:22:03;3.28;;;2.22;;
21430;SDS011;10876;49.038;10.608;2023-07-20T02:24:32;2.72;;;1.95;;
21430;SDS011;10876;49.038;10.608;2023-07-20T02:26:59;2.88;;;1.80;;
21430;SDS011;10876;49.038;10.608;2023-07-20T02:29:26;3.17;;;1.90;;
21430;SDS011;10876;49.038;10.608;2023-07-20T02:31:53;3.83;;;2.00;;
21430;SDS011;10876;49.038;10.608;2023-07-20T02:34:19;3.72;;;1.90;;
21430;SDS011;10876;49.038;10.608;2023-07-20T02:36:46;2.03;;;1.60;;
21430;SDS011;10876;49.038;10.608;2023-07-20T02:39:13;2.67;;;1.70;;
21430;SDS011;10876;49.038;10.608;2023-07-20T02:41:41;3.58;;;2.08;;
21430;SDS011;10876;49.038;10.608;2023-07-20T02:44:08;2.45;;;2.00;;
21430;SDS011;10876;49.038;10.608;2023-07-20T02:46:35;2.78;;;2.00;;
21430;SDS011;10876;49.038;10.608;2023-07-20T02:49:01;3.38;;;2.45;;
21430;SDS011;10876;49.038;10.608;2023-07-20T02:51:28;4.25;;;1.95;;
21430;SDS011;10876;49.038;10.608;2023-07-20T02:53:55;3.00;;;1.80;;
21430;SDS011;10876;49.038;10.608;2023-07-20T02:56:21;5.43;;;2.10;;
21430;SDS011;10876;49.038;10.608;2023-07-20T02:58:50;2.53;;;1.70;;
21430;SDS011;10876;49.038;10.608;2023-07-20T03:01:17;2.47;;;1.77;;
21430;SDS011;10876;49.038;10.608;2023-07-20T03:03:44;4.90;;;2.17;;
21430;SDS011;10876;49.038;10.608;2023-07-20T03:06:11;4.43;;;1.90;;
21430;SDS011;10876;49.038;10.608;2023-07-20T03:08:39;2.22;;;1.88;;
21430;SDS011;10876;49.038;10.608;2023-07-20T03:11:10;3.83;;;1.90;;
21430;SDS011;10876;49.038;10.608;2023-07-20T03:13:37;6.18;;;1.55;;
21430;SDS011;10876;49.038;10.608;2023-07-20T03:16:05;3.60;;;1.80;;
21430;SDS011;10876;49.038;10.608;2023-07-20T03:18:36;2.90;;;1.83;;
21430;SDS011;10876;49.038;10.608;2023-07-20T03:21:02;3.30;;;1.90;;
21430;SDS011;10876;49.038;10.608;2023-07-20T03:23:29;3.85;;;2.00;;
21430;SDS011;10876;49.038;10.608;2023-07-20T03:25:56;3.05;;;1.80;;
21430;SDS011;10876;49.038;10.608;2023-07-20T03:28:23;2.67;;;2.03;;
21430;SDS011;10876;49.038;10.608;2023-07-20T03:30:52;2.47;;;1.80;;
21430;SDS011;10876;49.038;10.608;2023-07-20T03:33:21;3.47;;;1.80;;
21430;SDS011;10876;49.038;10.608;2023-07-20T03:35:48;2.33;;;1.83;;
21430;SDS011;10876;49.038;10.608;2023-07-20T03:38:15;3.88;;;2.13;;
21430;SDS011;10876;49.038;10.608;2023-07-20T03:40:48;4.00;;;1.70;;
21430;SDS011;10876;49.038;10.608;2023-07-20T03:43:15;4.40;;;1.80;;
21430;SDS011;10876;49.038;10.608;2023-07-20T03:45:42;3.80;;;1.83;;
21430;SDS011;10876;49.038;10.608;2023-07-20T03:48:09;3.35;;;2.00;;
21430;SDS011;10876;49.038;10.608;2023-07-20T03:50:37;3.67;;;1.70;;
21430;SDS011;10876;49.038;10.608;2023-07-20T03:53:04;3.28;;;1.90;;
21430;SDS011;10876;49.038;10.608;2023-07-20T03:55:30;5.88;;;1.80;;
21430;SDS011;10876;49.038;10.608;2023-07-20T03:57:57;5.40;;;1.88;;
21430;SDS011;10876;49.038;10.608;2023-07-20T04:00:24;4.75;;;1.88;;
21430;SDS011;10876;49.038;10.608;2023-07-20T04:02:50;3.03;;;1.80;;
21430;SDS011;10876;49.038;10.608;2023-07-20T04:05:18;4.43;;;1.80;;
21430;SDS011;10876;49.038;10.608;2023-07-20T04:07:46;4.95;;;1.95;;
21430;SDS011;10876;49.038;10.608;2023-07-20T04:10:13;3.67;;;1.83;;
21430;SDS011;10876;49.038;10.608;2023-07-20T04:12:40;4.43;;;1.90;;
21430;SDS011;10876;49.038;10.608;2023-07-20T04:15:07;3.28;;;1.92;;
21430;SDS011;10876;49.038;10.608;2023-07-20T04:17:34;2.38;;;1.73;;
21430;SDS011;10876;49.038;10.608;2023-07-20T04:20:01;3.78;;;1.90;;
21430;SDS011;10876;49.038;10.608;2023-07-20T04:22:29;4.18;;;2.00;;
21430;SDS011;10876;49.038;10.608;2023-07-20T04:24:57;4.22;;;1.95;;
21430;SDS011;10876;49.038;10.608;2023-07-20T04:27:24;2.63;;;2.00;;
21430;SDS011;10876;49.038;10.608;2023-07-20T04:29:51;3.85;;;2.10;;
21430;SDS011;10876;49.038;10.608;2023-07-20T07:00:25;3.42;;;1.90;;
21430;SDS011;10876;49.038;10.608;2023-07-20T07:02:51;3.80;;;2.00;;
21430;SDS011;10876;49.038;10.608;2023-07-20T07:05:18;4.35;;;2.03;;
21430;SDS011;10876;49.038;10.608;2023-07-20T07:07:45;5.88;;;2.08;;
21430;SDS011;10876;49.038;10.608;2023-07-20T07:10:11;3.25;;;1.90;;
21430;SDS011;10876;49.038;10.608;2023-07-20T07:12:39;4.03;;;2.15;;
21430;SDS011;10876;49.038;10.608;2023-07-20T07:15:06;5.07;;;2.47;;
21430;SDS011;10876;49.038;10.608;2023-07-20T07:17:37;5.60;;;2.28;;
21430;SDS011;10876;49.038;10.608;2023-07-20T07:20:04;2.70;;;2.05;;
21430;SDS011;10876;49.038;10.608;2023-07-20T07:22:35;4.22;;;1.77;;
21430;SDS011;10876;49.038;10.608;2023-07-20T07:25:02;5.88;;;2.53;;
21430;SDS011;10876;49.038;10.608;2023-07-20T07:27:29;3.13;;;1.85;;
21430;SDS011;10876;49.038;10.608;2023-07-20T07:29:55;3.97;;;2.00;;
21430;SDS011;10876;49.038;10.608;2023-07-20T07:32:22;4.75;;;2.17;;
21430;SDS011;10876;49.038;10.608;2023-07-20T07:34:51;3.05;;;2.10;;
21430;SDS011;10876;49.038;10.608;2023-07-20T07:37:18;3.53;;;1.77;;
21430;SDS011;10876;49.038;10.608;2023-07-20T07:39:45;4.90;;;1.90;;
21430;SDS011;10876;49.038;10.608;2023-07-20T07:42:12;3.17;;;2.05;;
21430;SDS011;10876;49.038;10.608;2023-07-20T07:44:39;4.22;;;1.90;;
21430;SDS011;10876;49.038;10.608;2023-07-20T07:47:06;2.42;;;1.70;;
21430;SDS011;10876;49.038;10.608;2023-07-20T07:49:33;4.45;;;1.80;;
21430;SDS011;10876;49.038;10.608;2023-07-20T07:52:01;3.45;;;1.90;;
21430;SDS011;10876;49.038;10.608;2023-07-20T07:54:28;3.70;;;1.73;;
21430;SDS011;10876;49.038;10.608;2023-07-20T07:56:54;3.35;;;1.50;;
21430;SDS011;10876;49.038;10.608;2023-07-20T07:59:21;2.83;;;1.90;;
21430;SDS011;10876;49.038;10.608;2023-07-20T08:01:48;3.78;;;1.70;;
21430;SDS011;10876;49.038;10.608;2023-07-20T08:04:15;3.30;;;1.40;;
21430;SDS011;10876;49.038;10.608;2023-07-20T08:06:41;2.03;;;1.40;;
21430;SDS011;10876;49.038;10.608;2023-07-20T08:09:09;4.32;;;1.65;;
21430;SDS011;10876;49.038;10.608;2023-07-20T08:11:36;5.03;;;1.90;;
21430;SDS011;10876;49.038;10.608;2023-07-20T08:14:05;3.83;;;1.40;;
21430;SDS011;10876;49.038;10.608;2023-07-20T08:16:32;2.97;;;1.67;;
21430;SDS011;10876;49.038;10.608;2023-07-20T08:18:59;3.53;;;1.40;;
21430;SDS011;10876;49.038;10.608;2023-07-20T08:21:26;6.82;;;2.15;;
21430;SDS011;10876;49.038;10.608;2023-07-20T08:23:52;3.35;;;1.40;;
21430;SDS011;10876;49.038;10.608;2023-07-20T08:26:20;2.70;;;1.77;;
21430;SDS011;10876;49.038;10.608;2023-07-20T08:28:47;3.60;;;1.70;;
21430;SDS011;10876;49.038;10.608;2023-07-20T08:31:14;3.72;;;1.55;;
21430;SDS011;10876;49.038;10.608;2023-07-20T08:33:41;2.42;;;1.60;;
21430;SDS011;10876;49.038;10.608;2023-07-20T08:36:07;3.97;;;1.40;;
21430;SDS011;10876;49.038;10.608;2023-07-20T08:38:34;9.02;;;1.60;;
21430;SDS011;10876;49.038;10.608;2023-07-20T08:41:01;2.38;;;1.40;;
21430;SDS011;10876;49.038;10.608;2023-07-20T08:43:29;2.22;;;1.50;;
21430;SDS011;10876;49.038;10.608;2023-07-20T08:45:57;2.45;;;1.60;;
21430;SDS011;10876;49.038;10.608;2023-07-20T08:48:24;2.22;;;1.27;;
21430;SDS011;10876;49.038;10.608;2023-07-20T08:50:54;5.88;;;1.55;;
21430;SDS011;10876;49.038;10.608;2023-07-20T08:53:22;3.33;;;1.63;;
21430;SDS011;10876;49.038;10.608;2023-07-20T08:55:50;3.40;;;1.55;;
21430;SDS011;10876;49.038;10.608;2023-07-20T08:58:17;1.90;;;1.48;;
21430;SDS011;10876;49.038;10.608;2023-07-20T09:00:46;2.60;;;1.50;;
21430;SDS011;10876;49.038;10.608;2023-07-20T09:03:15;3.95;;;1.40;;
21430;SDS011;10876;49.038;10.608;2023-07-20T09:05:42;2.88;;;1.70;;
21430;SDS011;10876;49.038;10.608;2023-07-20T09:08:08;1.85;;;1.40;;
21430;SDS011;10876;49.038;10.608;2023-07-20T09:10:35;3.42;;;1.60;;
21430;SDS011;10876;49.038;10.608;2023-07-20T09:13:02;2.10;;;1.27;;
21430;SDS011;10876;49.038;10.608;2023-07-20T09:15:29;4.38;;;1.30;;
21430;SDS011;10876;49.038;10.608;2023-07-20T09:17:58;3.88;;;1.85;;
21430;SDS011;10876;49.038;10.608;2023-07-20T09:20:28;3.75;;;1.50;;
21430;SDS011;10876;49.038;10.608;2023-07-20T09:22:59;1.90;;;1.50;;
21430;SDS011;10876;49.038;10.608;2023-07-20T09:25:30;3.20;;;1.40;;
21430;SDS011;10876;49.038;10.608;2023-07-20T09:27:57;4.85;;;1.65;;
21430;SDS011;10876;49.038;10.608;2023-07-20T09:30:29;3.92;;;2.05;;
21430;SDS011;10876;49.038;10.608;2023-07-20T09:32:55;3.20;;;1.63;;
21430;SDS011;10876;49.038;10.608;2023-07-20T09:35:23;3.72;;;1.50;;
21430;SDS011;10876;49.038;10.608;2023-07-20T09:37:50;2.28;;;1.40;;
21430;SDS011;10876;49.038;10.608;2023-07-20T09:40:20;3.45;;;1.38;;
21430;SDS011;10876;49.038;10.608;2023-07-20T09:42:47;1.75;;;1.10;;
21430;SDS011;10876;49.038;10.608;2023-07-20T09:45:14;1.67;;;1.13;;
21430;SDS011;10876;49.038;10.608;2023-07-20T09:47:40;3.72;;;1.45;;
21430;SDS011;10876;49.038;10.608;2023-07-20T09:50:08;2.35;;;1.50;;
21430;SDS011;10876;49.038;10.608;2023-07-20T09:52:41;2.78;;;1.23;;
21430;SDS011;10876;49.038;10.608;2023-07-20T09:55:10;4.60;;;1.30;;
21430;SDS011;10876;49.038;10.608;2023-07-20T09:57:39;2.35;;;1.40;;
21430;SDS011;10876;49.038;10.608;2023-07-20T10:00:07;2.60;;;1.30;;
21430;SDS011;10876;49.038;10.608;2023-07-20T10:02:40;1.50;;;1.10;;
21430;SDS011;10876;49.038;10.608;2023-07-20T10:05:10;2.55;;;1.48;;
21430;SDS011;10876;49.038;10.608;2023-07-20T10:07:43;4.78;;;1.50;;
21430;SDS011;10876;49.038;10.608;2023-07-20T10:10:13;1.70;;;1.30;;
21430;SDS011;10876;49.038;10.608;2023-07-20T10:12:42;1.48;;;1.13;;
21430;SDS011;10876;49.038;10.608;2023-07-20T10:15:11;2.95;;;1.30;;
21430;SDS011;10876;49.038;10.608;2023-07-20T10:17:46;1.73;;;1.20;;
21430;SDS011;10876;49.038;10.608;2023-07-20T10:20:19;4.05;;;1.20;;
21430;SDS011;10876;49.038;10.608;2023-07-20T10:22:49;2.40;;;1.20;;
21430;SDS011;10876;49.038;10.608;2023-07-20T10:25:19;2.40;;;1.05;;
21430;SDS011;10876;49.038;10.608;2023-07-20T10:27:46;1.10;;;1.00;;
21430;SDS011;10876;49.038;10.608;2023-07-20T10:30:14;2.67;;;1.00;;
21430;SDS011;10876;49.038;10.608;2023-07-20T10:32:42;3.47;;;1.33;;
21430;SDS011;10876;49.038;10.608;2023-07-20T10:35:13;1.67;;;1.20;;
21430;SDS011;10876;49.038;10.608;2023-07-20T10:37:46;2.53;;;1.33;;
21430;SDS011;10876;49.038;10.608;2023-07-20T10:40:26;1.80;;;1.33;;
21430;SDS011;10876;49.038;10.608;2023-07-20T10:43:00;2.08;;;1.00;;
21430;SDS011;10876;49.038;10.608;2023-07-20T10:45:35;1.80;;;1.02;;
21430;SDS011;10876;49.038;10.608;2023-07-20T10:48:03;3.33;;;1.10;;
21430;SDS011;10876;49.038;10.608;2023-07-20T10:50:32;3.13;;;1.30;;
21430;SDS011;10876;49.038;10.608;2023-07-20T10:53:11;1.60;;;1.13;;
21430;SDS011;10876;49.038;10.608;2023-07-20T10:55:40;1.40;;;1.13;;
21430;SDS011;10876;49.038;10.608;2023-07-20T10:58:09;1.40;;;1.00;;
21430;SDS011;10876;49.038;10.608;2023-07-20T11:00:39;3.35;;;1.30;;
21430;SDS011;10876;49.038;10.608;2023-07-20T11:03:31;3.08;;;1.25;;
21430;SDS011;10876;49.038;10.608;2023-07-20T11:05:59;2.55;;;1.50;;
21430;SDS011;10876;49.038;10.608;2023-07-20T11:08:47;1.73;;;1.17;;
21430;SDS011;10876;49.038;10.608;2023-07-20T11:11:20;1.90;;;1.20;;
21430;SDS011;10876;49.038;10.608;2023-07-20T11:13:54;2.03;;;1.17;;
21430;SDS011;10876;49.038;10.608;2023-07-20T11:16:36;2.72;;;1.10;;
21430;SDS011;10876;49.038;10.608;2023-07-20T11:19:04;1.95;;;1.25;;
21430;SDS011;10876;49.038;10.608;2023-07-20T11:21:35;2.22;;;1.38;;
21430;SDS011;10876;49.038;10.608;2023-07-20T11:24:05;1.73;;;1.02;;
21430;SDS011;10876;49.038;10.608;2023-07-20T11:26:43;2.33;;;1.30;;
21430;SDS011;10876;49.038;10.608;2023-07-20T11:29:11;2.15;;;1.27;;
21430;SDS011;10876;49.038;10.608;2023-07-20T11:31:38;2.13;;;1.20;;
21430;SDS011;10876;49.038;10.608;2023-07-20T11:34:07;2.22;;;1.27;;
21430;SDS011;10876;49.038;10.608;2023-07-20T11:36:41;1.33;;;1.10;;
21430;SDS011;10876;49.038;10.608;2023-07-20T11:39:11;2.88;;;1.20;;
21430;SDS011;10876;49.038;10.608;2023-07-20T11:41:39;1.52;;;1.23;;
21430;SDS011;10876;49.038;10.608;2023-07-20T11:44:10;2.65;;;1.00;;
21430;SDS011;10876;49.038;10.608;2023-07-20T11:46:38;2.45;;;1.27;;
21430;SDS011;10876;49.038;10.608;2023-07-20T11:49:05;2.25;;;1.10;;
21430;SDS011;10876;49.038;10.608;2023-07-20T11:51:33;1.55;;;1.08;;
21430;SDS011;10876;49.038;10.608;2023-07-20T11:54:01;3.10;;;1.40;;
21430;SDS011;10876;49.038;10.608;2023-07-20T11:56:29;1.33;;;1.10;;
21430;SDS011;10876;49.038;10.608;2023-07-20T11:58:57;1.40;;;1.25;;
21430;SDS011;10876;49.038;10.608;2023-07-20T12:01:26;1.48;;;1.35;;
21430;SDS011;10876;49.038;10.608;2023-07-20T12:03:54;2.13;;;1.58;;
21430;SDS011;10876;49.038;10.608;2023-07-20T12:06:23;2.53;;;1.20;;
21430;SDS011;10876;49.038;10.608;2023-07-20T12:08:50;1.80;;;1.33;;
21430;SDS011;10876;49.038;10.608;2023-07-20T12:11:31;2.83;;;1.83;;
21430;SDS011;10876;49.038;10.608;2023-07-20T12:13:58;2.70;;;1.20;;
21430;SDS011;10876;49.038;10.608;2023-07-20T12:16:26;4.05;;;1.35;;
21430;SDS011;10876;49.038;10.608;2023-07-20T12:18:58;1.30;;;1.13;;
21430;SDS011;10876;49.038;10.608;2023-07-20T12:21:26;2.30;;;1.40;;
21430;SDS011;10876;49.038;10.608;2023-07-20T12:23:55;3.38;;;1.30;;
21430;SDS011;10876;49.038;10.608;2023-07-20T12:26:22;2.20;;;1.00;;
21430;SDS011;10876;49.038;10.608;2023-07-20T12:28:50;3.08;;;1.30;;
21430;SDS011;10876;49.038;10.608;2023-07-20T12:31:17;3.22;;;1.45;;
21430;SDS011;10876;49.038;10.608;2023-07-20T12:33:44;5.78;;;1.20;;
21430;SDS011;10876;49.038;10.608;2023-07-20T12:36:11;3.00;;;1.10;;
21430;SDS011;10876;49.038;10.608;2023-07-20T12:38:37;3.40;;;1.50;;
21430;SDS011;10876;49.038;10.608;2023-07-20T12:41:04;1.85;;;1.20;;
21430;SDS011;10876;49.038;10.608;2023-07-20T12:43:31;2.33;;;1.27;;
21430;SDS011;10876;49.038;10.608;2023-07-20T12:45:59;1.50;;;1.23;;
21430;SDS011;10876;49.038;10.608;2023-07-20T12:48:26;1.30;;;1.00;;
21430;SDS011;10876;49.038;10.608;2023-07-20T12:50:53;2.22;;;1.20;;
21430;SDS011;10876;49.038;10.608;2023-07-20T12:53:20;1.40;;;1.23;;
21430;SDS011;10876;49.038;10.608;2023-07-20T12:55:47;2.00;;;1.00;;
21430;SDS011;10876;49.038;10.608;2023-07-20T12:58:13;6.85;;;1.20;;
21430;SDS011;10876;49.038;10.608;2023-07-20T13:00:40;2.10;;;0.95;;
21430;SDS011;10876;49.038;10.608;2023-07-20T13:03:09;3.28;;;1.05;;
21430;SDS011;10876;49.038;10.608;2023-07-20T13:05:36;3.15;;;1.10;;
21430;SDS011;10876;49.038;10.608;2023-07-20T13:08:03;1.27;;;1.00;;
21430;SDS011;10876;49.038;10.608;2023-07-20T13:10:30;2.00;;;0.88;;
21430;SDS011;10876;49.038;10.608;2023-07-20T13:12:57;1.73;;;0.95;;
21430;SDS011;10876;49.038;10.608;2023-07-20T13:15:29;1.80;;;1.02;;
21430;SDS011;10876;49.038;10.608;2023-07-20T13:17:57;0.90;;;0.82;;
21430;SDS011;10876;49.038;10.608;2023-07-20T13:20:26;1.60;;;1.10;;
21430;SDS011;10876;49.038;10.608;2023-07-20T13:22:55;0.90;;;0.90;;
21430;SDS011;10876;49.038;10.608;2023-07-20T13:25:21;2.78;;;1.20;;
21430;SDS011;10876;49.038;10.608;2023-07-20T13:27:48;3.13;;;0.90;;
21430;SDS011;10876;49.038;10.608;2023-07-20T13:30:17;1.77;;;1.00;;
21430;SDS011;10876;49.038;10.608;2023-07-20T13:32:44;1.00;;;0.90;;
21430;SDS011;10876;49.038;10.608;2023-07-20T13:35:11;1.45;;;1.02;;
21430;SDS011;10876;49.038;10.608;2023-07-20T13:37:39;2.33;;;1.05;;
21430;SDS011;10876;49.038;10.608;2023-07-20T13:40:07;6.15;;;1.20;;
21430;SDS011;10876;49.038;10.608;2023-07-20T13:42:37;1.50;;;1.38;;
21430;SDS011;10876;49.038;10.608;2023-07-20T13:45:04;2.00;;;1.00;;
21430;SDS011;10876;49.038;10.608;2023-07-20T13:47:31;1.27;;;0.85;;
21430;SDS011;10876;49.038;10.608;2023-07-20T13:49:58;2.35;;;1.20;;
21430;SDS011;10876;49.038;10.608;2023-07-20T13:52:25;2.03;;;1.05;;
21430;SDS011;10876;49.038;10.608;2023-07-20T13:54:53;3.92;;;0.93;;
21430;SDS011;10876;49.038;10.608;2023-07-20T13:57:20;1.52;;;0.93;;
21430;SDS011;10876;49.038;10.608;2023-07-20T13:59:46;2.65;;;1.10;;
21430;SDS011;10876;49.038;10.608;2023-07-20T14:02:13;2.15;;;0.90;;
21430;SDS011;10876;49.038;10.608;2023-07-20T14:04:43;1.10;;;1.00;;
21430;SDS011;10876;49.038;10.608;2023-07-20T14:07:09;1.65;;;1.00;;
21430;SDS011;10876;49.038;10.608;2023-07-20T14:09:36;1.85;;;1.05;;
21430;SDS011;10876;49.038;10.608;2023-07-20T14:12:05;1.38;;;1.00;;
21430;SDS011;10876;49.038;10.608;2023-07-20T14:14:33;3.17;;;1.15;;
21430;SDS011;10876;49.038;10.608;2023-07-20T14:17:00;3.03;;;1.00;;
21430;SDS011;10876;49.038;10.608;2023-07-20T14:19:27;2.10;;;1.15;;
21430;SDS011;10876;49.038;10.608;2023-07-20T14:21:53;1.77;;;1.20;;
21430;SDS011;10876;49.038;10.608;2023-07-20T14:24:20;2.35;;;1.10;;
21430;SDS011;10876;49.038;10.608;2023-07-20T14:26:47;1.17;;;1.02;;
21430;SDS011;10876;49.038;10.608;2023-07-20T14:29:15;5.95;;;1.10;;
21430;SDS011;10876;49.038;10.608;2023-07-20T14:31:43;1.95;;;1.25;;
21430;SDS011;10876;49.038;10.608;2023-07-20T14:34:09;2.53;;;1.20;;
21430;SDS011;10876;49.038;10.608;2023-07-20T14:36:36;2.88;;;1.10;;
21430;SDS011;10876;49.038;10.608;2023-07-20T14:39:03;1.65;;;1.00;;
21430;SDS011;10876;49.038;10.608;2023-07-20T14:41:30;2.85;;;1.10;;
21430;SDS011;10876;49.038;10.608;2023-07-20T14:43:57;2.13;;;1.10;;
21430;SDS011;10876;49.038;10.608;2023-07-20T14:46:25;2.33;;;1.23;;
21430;SDS011;10876;49.038;10.608;2023-07-20T14:48:51;1.63;;;1.00;;
21430;SDS011;10876;49.038;10.608;2023-07-20T14:51:18;1.20;;;0.90;;
21430;SDS011;10876;49.038;10.608;2023-07-20T14:53:45;2.55;;;1.00;;
21430;SDS011;10876;49.038;10.608;2023-07-20T14:56:11;5.15;;;1.20;;
21430;SDS011;10876;49.038;10.608;2023-07-20T14:58:38;1.13;;;1.02;;
21430;SDS011;10876;49.038;10.608;2023-07-20T15:01:05;1.48;;;0.88;;
21430;SDS011;10876;49.038;10.608;2023-07-20T15:03:33;2.38;;;1.10;;
21430;SDS011;10876;49.038;10.608;2023-07-20T15:05:59;2.22;;;1.25;;
21430;SDS011;10876;49.038;10.608;2023-07-20T15:08:27;2.63;;;1.20;;
21430;SDS011;10876;49.038;10.608;2023-07-20T15:10:54;1.67;;;0.98;;
21430;SDS011;10876;49.038;10.608;2023-07-20T15:13:21;1.30;;;0.93;;
21430;SDS011;10876;49.038;10.608;2023-07-20T15:15:48;2.92;;;1.55;;
21430;SDS011;10876;49.038;10.608;2023-07-20T15:18:15;1.05;;;0.98;;
21430;SDS011;10876;49.038;10.608;2023-07-20T15:20:43;2.03;;;1.00;;
21430;SDS011;10876;49.038;10.608;2023-07-20T15:23:10;2.70;;;1.00;;
21430;SDS011;10876;49.038;10.608;2023-07-20T15:25:36;2.20;;;1.10;;
21430;SDS011;10876;49.038;10.608;2023-07-20T15:28:03;1.50;;;1.10;;
21430;SDS011;10876;49.038;10.608;2023-07-20T15:30:30;2.63;;;1.17;;
21430;SDS011;10876;49.038;10.608;2023-07-20T15:32:57;1.33;;;0.90;;
21430;SDS011;10876;49.038;10.608;2023-07-20T15:35:23;1.42;;;0.93;;
21430;SDS011;10876;49.038;10.608;2023-07-20T15:37:51;2.78;;;0.93;;
21430;SDS011;10876;49.038;10.608;2023-07-20T15:40:18;1.13;;;0.90;;
21430;SDS011;10876;49.038;10.608;2023-07-20T15:42:45;2.28;;;1.00;;
21430;SDS011;10876;49.038;10.608;2023-07-20T15:45:12;1.90;;;0.80;;
21430;SDS011;10876;49.038;10.608;2023-07-20T15:47:38;2.50;;;1.00;;
21430;SDS011;10876;49.038;10.608;2023-07-20T15:50:05;2.17;;;0.90;;
21430;SDS011;10876;49.038;10.608;2023-07-20T15:52:32;1.33;;;1.05;;
21430;SDS011;10876;49.038;10.608;2023-07-20T15:55:00;2.38;;;0.90;;
21430;SDS011;10876;49.038;10.608;2023-07-20T15:57:29;3.70;;;1.27;;
21430;SDS011;10876;49.038;10.608;2023-07-20T15:59:56;2.22;;;0.93;;
21430;SDS011;10876;49.038;10.608;2023-07-20T16:02:22;3.15;;;0.95;;
21430;SDS011;10876;49.038;10.608;2023-07-20T16:04:49;0.73;;;0.73;;
21430;SDS011;10876;49.038;10.608;2023-07-20T16:07:16;2.97;;;0.90;;
21430;SDS011;10876;49.038;10.608;2023-07-20T16:09:42;2.17;;;1.00;;
21430;SDS011;10876;49.038;10.608;2023-07-20T16:12:11;1.50;;;1.00;;
21430;SDS011;10876;49.038;10.608;2023-07-20T16:14:37;1.73;;;1.10;;
21430;SDS011;10876;49.038;10.608;2023-07-20T16:17:04;3.05;;;1.08;;
21430;SDS011;10876;49.038;10.608;2023-07-20T16:19:52;1.23;;;0.98;;
21430;SDS011;10876;49.038;10.608;2023-07-20T16:22:23;1.50;;;0.90;;
21430;SDS011;10876;49.038;10.608;2023-07-20T16:24:49;1.33;;;1.00;;
21430;SDS011;10876;49.038;10.608;2023-07-20T16:27:17;2.63;;;0.90;;
21430;SDS011;10876;49.038;10.608;2023-07-20T16:29:44;1.50;;;1.08;;
21430;SDS011;10876;49.038;10.608;2023-07-20T16:32:11;1.40;;;1.00;;
21430;SDS011;10876;49.038;10.608;2023-07-20T16:34:37;1.30;;;0.90;;
21430;SDS011;10876;49.038;10.608;2023-07-20T16:37:04;1.85;;;0.90;;
21430;SDS011;10876;49.038;10.608;2023-07-20T16:39:31;1.60;;;1.00;;
21430;SDS011;10876;49.038;10.608;2023-07-20T16:41:58;3.38;;;0.70;;
21430;SDS011;10876;49.038;10.608;2023-07-20T16:44:26;3.65;;;1.10;;
21430;SDS011;10876;49.038;10.608;2023-07-20T16:46:52;1.85;;;0.80;;
21430;SDS011;10876;49.038;10.608;2023-07-20T16:49:19;2.15;;;1.17;;
21430;SDS011;10876;49.038;10.608;2023-07-20T16:51:46;2.42;;;1.30;;
21430;SDS011;10876;49.038;10.608;2023-07-20T16:54:12;4.72;;;1.55;;
21430;SDS011;10876;49.038;10.608;2023-07-20T16:56:39;1.20;;;1.00;;
21430;SDS011;10876;49.038;10.608;2023-07-20T16:59:06;3.67;;;1.20;;
21430;SDS011;10876;49.038;10.608;2023-07-20T17:01:34;2.35;;;0.98;;
21430;SDS011;10876;49.038;10.608;2023-07-20T17:04:01;1.90;;;1.00;;
21430;SDS011;10876;49.038;10.608;2023-07-20T17:06:28;1.90;;;1.20;;
21430;SDS011;10876;49.038;10.608;2023-07-20T17:09:00;3.78;;;1.00;;
21430;SDS011;10876;49.038;10.608;2023-07-20T17:11:26;1.60;;;1.02;;
21430;SDS011;10876;49.038;10.608;2023-07-20T17:13:53;1.50;;;0.88;;